ORAGE DU 12 SEPTEMBRE 2004

à PEYPIN ( Est des Bouches du Rhône )

 

Cette petite fiche est uniquement un assortiment de documents retraçant l'épisode orageux du 12 septembre 2004 où des précipitations très fortes ont touché l'est des Bouches du Rhône. N'ayant pas le temps de préparer un dossier bien plus complet, je laisse à votre disposition les images, montages et photos réalisées.
    Temp Hi Low Out Dew Wind Wind Hi Hi Wind     Rain
Date Time Out Temp Temp Hum Pt. Speed Dir Speed Dir Chill Bar Rain Rate
12/09/2004 02:40 18.8 18.8 18.7 74 14.1 6.4 NW 19.3 W 18.8 1017.0 0.00 0.0
12/09/2004 02:45 17.6 18.7 17.6 86 15.2 30.6 SW 95.0 SSW 15.8 1018.8 11.68 332.5
12/09/2004 02:50 16.7 17.6 16.7 89 14.8 22.5 W 54.7 WSW 15.1 1018.8 18.03 430.3
12/09/2004 02:55 16.5 16.7 16.5 90 14.9 25.7 WNW 41.8 WNW 14.6 1018.8 16.76 385.1
12/09/2004 03:00 16.0 16.5 16.0 90 14.4 30.6 W 61.2 WNW 13.7 1021.6 16.00 609.6
12/09/2004 03:05 15.3 15.9 15.3 90 13.6 37.0 WNW 61.2 NW 12.4 1021.6 6.86 318.0
12/09/2004 03:10 15.2 15.3 15.2 89 13.4 30.6 WNW 53.1 WNW 12.7 1021.6 3.05 77.0
12/09/2004 03:15 15.2 15.3 15.2 88 13.2 29.0 NNW 46.7 NNW 12.7 1021.3 1.02 30.7
12/09/2004 03:20 15.1 15.2 15.1 89 13.3 20.9 N 35.4 N 13.1 1021.3 0.51 9.4
12/09/2004 03:25 15.1 15.1 15.1 90 13.5 16.1 N 29.0 NW 13.4 1021.3 0.25 5.6
12/09/2004 03:30 15.1 15.1 15.1 89 13.3 20.9 N 35.4 N 13.0 1021.0 0.76 12.7
12/09/2004 03:35 14.8 15.1 14.8 89 13.0 17.7 N 29.0 N 12.9 1021.0 0.51 11.9
12/09/2004 03:40 14.6 14.8 14.6 90 13.0 16.1 N 22.5 N 12.8 1021.0 0.51 9.1
12/09/2004 03:45 14.6 14.6 14.6 90 12.9 12.9 N 22.5 NNW 13.1 1020.3 0.51 7.6
12/09/2004 03:50 14.6 14.6 14.6 91 13.1 11.3 N 17.7 N 13.3 1020.3 0.51 6.9
12/09/2004 03:55 14.4 14.6 14.4 91 13.0 6.4 N 17.7 NNW 13.9 1020.3 0.25 5.8
12/09/2004 04:00 14.6 14.6 14.4 91 13.1 8.0 NNW 12.9 NNW 13.7 1019.8 0.25 3.3
12/09/2004 04:05 14.6 14.6 14.6 91 13.2 6.4 N 12.9 NNW 14.1 1019.8 0.00 2.5
12/09/2004 04:10 14.6 14.6 14.6 90 13.0 1.6 NNE 4.8 NNE 14.6 1019.8 0.00 1.5
12/09/2004 04:15 14.6 14.6 14.6 91 13.2 3.2 ESE 8.0 SE 14.6 1019.6 0.00 1.0
12/09/2004 04:20 14.6 14.6 14.6 91 13.1 4.8 SE 17.7 ESE 14.4 1019.6 0.00 0.0

Ce tableau provient de la Station Vantage Pro Davis installée sur le mat de 6 m posé au dessus de la faîtière de mon domicile. Il donne toutes les 5 minutes les données enregistrées par les différents capteurs.

Situation vue par le satellite Meteosat7 et le réseau Meteorage

 

Voici les données radars superposées à une carte des BdR pour aider le visiteur à mieux localiser les intensités

Radar Bollène

00h45 TU

Radar Bollène

01H00 TU

Graphes issus de la station ( heures locales )

Le fleuve côtier Huveaune le 23 août 2004 et le 12 septembre 2004 au matin

A quelques centaines de mètres de Peypin, la descente d'un lotissement de Cadolive donne une idée de la quantité de terre charriée par les pluies.

Les services de la DDE s'activaient, tôt, ce matin, armés de balais et de pelles afin que nos départementales ne ressemblent pas à des pistes...

Si, pour des raisons de constitution de dossiers ou autres, vous avez besoin de ces photos à un format plus élévé ( 1024 X 768 ), n'hésitez pas à m'écrire.

Crédit METEO FRANCE

 

Jean-Marie Muggianu

 

Weboscope Mesure d'audience, statistiques, ROI
Classement des meilleurs sites, chat, sondage